createdAt,value
2022-12-01T00:06:36.375Z,4.4
2022-12-01T00:16:38.612Z,4.4
2022-12-01T00:26:40.557Z,4.4
2022-12-01T00:36:42.399Z,4.4
2022-12-01T00:46:51.925Z,4.4
2022-12-01T00:56:47.487Z,4.3
2022-12-01T01:06:56.827Z,4.4
2022-12-01T01:16:52.533Z,4.4
2022-12-01T01:26:55.051Z,4.4
2022-12-01T01:36:56.904Z,4.4
2022-12-01T01:46:59.122Z,4.4
2022-12-01T01:57:01.183Z,4.4
2022-12-01T02:17:05.630Z,4.4
2022-12-01T02:27:07.444Z,4.4
2022-12-01T02:37:09.619Z,4.4
2022-12-01T02:47:12.074Z,4.4
2022-12-01T03:17:18.732Z,4.5
2022-12-01T03:27:21.111Z,4.5
2022-12-01T03:37:23.026Z,4.5
2022-12-01T04:07:28.972Z,4.5
2022-12-01T04:17:30.927Z,4.4
2022-12-01T04:47:36.847Z,4.5
2022-12-01T04:57:38.882Z,4.5
2022-12-01T05:07:40.753Z,4.5
2022-12-01T05:27:45.015Z,4.3
2022-12-01T05:37:47.157Z,4.3
2022-12-01T05:47:49.244Z,4.3
2022-12-01T05:57:51.890Z,4.3
2022-12-01T06:07:53.802Z,4.3
2022-12-01T06:17:55.821Z,4.2
2022-12-01T06:27:57.487Z,4.2
2022-12-01T06:48:01.189Z,4.2
2022-12-01T06:58:03.099Z,4.2
2022-12-01T07:08:05.860Z,4.2
2022-12-01T07:18:14.534Z,4.1
2022-12-01T07:28:31.529Z,4.1
2022-12-01T07:38:33.849Z,4.1
2022-12-01T07:48:13.824Z,4
2022-12-01T07:58:15.743Z,4.1
2022-12-01T08:18:19.686Z,4
2022-12-01T08:28:21.758Z,4
2022-12-01T08:38:24.245Z,4.1
2022-12-01T08:48:26.778Z,4
2022-12-01T08:58:28.604Z,4.1
2022-12-01T09:08:30.613Z,4
2022-12-01T09:18:32.730Z,4.1
2022-12-01T09:28:41.895Z,4.1
2022-12-01T09:38:36.582Z,4.1
2022-12-01T09:48:45.293Z,4.3
2022-12-01T09:58:40.379Z,4.3
2022-12-01T10:08:42.156Z,4.4
2022-12-01T10:18:44.224Z,4.4
2022-12-01T10:28:46.025Z,4.4
2022-12-01T10:38:55.042Z,4.3
2022-12-01T10:48:50.158Z,4.3
2022-12-01T10:58:52.611Z,4.3
2022-12-01T11:08:54.709Z,4.4
2022-12-01T11:19:03.423Z,4.5
2022-12-01T11:29:05.935Z,4.5
2022-12-01T11:39:08.500Z,4.6
2022-12-01T11:59:05.831Z,4.6
2022-12-01T12:09:08.061Z,4.6
2022-12-01T12:19:17.290Z,4.6
2022-12-01T12:29:14.052Z,4.6
2022-12-01T12:39:36.651Z,4.6
2022-12-01T12:59:19.226Z,4.6
2022-12-01T13:09:21.471Z,4.6
2022-12-01T13:29:26.580Z,4.7
2022-12-01T13:39:28.831Z,4.7
2022-12-01T13:49:33.361Z,4.7
2022-12-01T13:59:40.346Z,4.7
2022-12-01T14:09:35.045Z,4.7
2022-12-01T14:19:43.831Z,4.6
2022-12-01T14:29:39.019Z,4.5
2022-12-01T14:39:48.388Z,4.5
2022-12-01T14:49:51.019Z,4.5
2022-12-01T15:09:48.576Z,4.4
2022-12-01T15:19:50.825Z,4.4
2022-12-01T15:30:00.177Z,4.3
2022-12-01T15:39:57.778Z,4.3
2022-12-01T15:49:57.840Z,4.2
2022-12-01T16:40:09.554Z,3.8
2022-12-01T16:50:11.884Z,3.7
2022-12-01T17:30:27.688Z,3.3
2022-12-01T17:40:22.429Z,3.3
2022-12-01T18:30:39.366Z,3.2
2022-12-01T18:40:34.311Z,3.2
2022-12-01T18:50:36.510Z,3.2
2022-12-01T19:00:38.436Z,3.1
2022-12-01T19:30:48.153Z,3
2022-12-01T19:40:46.981Z,2.9
2022-12-01T19:50:49.321Z,2.9
2022-12-01T20:01:13.620Z,2.9
2022-12-01T20:21:02.542Z,2.9
2022-12-01T20:21:39.379Z,2.9
2022-12-01T20:31:26.882Z,2.9
2022-12-01T20:41:28.601Z,2.9
2022-12-01T20:51:31.230Z,2.8
2022-12-01T21:01:40.355Z,2.8
2022-12-01T21:11:35.911Z,2.7
2022-12-01T21:21:45.247Z,2.6
2022-12-01T21:31:40.352Z,2.5
2022-12-01T21:41:49.947Z,2.4
2022-12-01T22:11:49.659Z,2.1
2022-12-01T22:21:51.996Z,2.1
2022-12-01T22:31:53.894Z,2
2022-12-01T22:42:03.398Z,2
2022-12-01T22:51:58.660Z,1.9
2022-12-01T23:22:05.331Z,1.7
2022-12-01T23:32:07.998Z,1.8
2022-12-01T23:42:09.904Z,1.8
2022-12-01T23:52:19.190Z,1.8
